sensor_id;sensor_type;location;lat;lon;timestamp;pressure;altitude;pressure_sealevel;temperature;humidity
40592;BME280;26301;42.832;23.918;2023-08-31T00:00:41;92730.41;;;16.37;100.00
40592;BME280;26301;42.832;23.918;2023-08-31T00:03:07;92713.28;;;16.31;100.00
40592;BME280;26301;42.832;23.918;2023-08-31T00:05:39;92734.97;;;16.45;100.00
40592;BME280;26301;42.832;23.918;2023-08-31T00:08:06;92724.28;;;16.46;100.00
40592;BME280;26301;42.832;23.918;2023-08-31T00:10:35;92708.28;;;16.34;100.00
40592;BME280;26301;42.832;23.918;2023-08-31T00:13:05;92711.34;;;16.36;100.00
40592;BME280;26301;42.832;23.918;2023-08-31T00:15:32;92735.41;;;16.52;100.00
40592;BME280;26301;42.832;23.918;2023-08-31T00:18:01;92720.09;;;16.45;100.00
40592;BME280;26301;42.832;23.918;2023-08-31T00:20:31;92716.66;;;16.50;100.00
40592;BME280;26301;42.832;23.918;2023-08-31T00:23:08;92715.94;;;16.44;100.00
40592;BME280;26301;42.832;23.918;2023-08-31T00:25:34;92734.97;;;16.45;100.00
40592;BME280;26301;42.832;23.918;2023-08-31T00:27:59;92720.38;;;16.44;100.00
40592;BME280;26301;42.832;23.918;2023-08-31T00:30:31;92704.09;;;16.33;100.00
40592;BME280;26301;42.832;23.918;2023-08-31T00:32:58;92726.50;;;16.34;100.00
40592;BME280;26301;42.832;23.918;2023-08-31T00:35:27;92725.66;;;16.39;100.00
40592;BME280;26301;42.832;23.918;2023-08-31T00:37:54;92717.13;;;16.33;100.00
40592;BME280;26301;42.832;23.918;2023-08-31T00:40:26;92739.91;;;16.46;100.00
40592;BME280;26301;42.832;23.918;2023-08-31T00:42:53;92714.66;;;16.23;100.00
40592;BME280;26301;42.832;23.918;2023-08-31T00:45:20;92736.66;;;16.36;100.00
40592;BME280;26301;42.832;23.918;2023-08-31T00:47:48;92709.06;;;16.11;100.00
40592;BME280;26301;42.832;23.918;2023-08-31T00:50:15;92720.81;;;16.08;100.00
40592;BME280;26301;42.832;23.918;2023-08-31T00:52:42;92747.75;;;16.22;100.00
40592;BME280;26301;42.832;23.918;2023-08-31T00:55:10;92745.50;;;16.16;100.00
40592;BME280;26301;42.832;23.918;2023-08-31T00:57:36;92724.00;;;16.05;100.00
40592;BME280;26301;42.832;23.918;2023-08-31T01:00:03;92724.00;;;16.05;100.00
40592;BME280;26301;42.832;23.918;2023-08-31T01:02:40;92741.16;;;16.06;100.00
40592;BME280;26301;42.832;23.918;2023-08-31T01:05:13;92744.81;;;16.05;100.00
40592;BME280;26301;42.832;23.918;2023-08-31T01:13:14;92726.97;;;15.69;100.00
40592;BME280;26301;42.832;23.918;2023-08-31T01:15:45;92725.66;;;15.67;100.00
40592;BME280;26301;42.832;23.918;2023-08-31T01:18:15;92737.13;;;15.71;100.00
40592;BME280;26301;42.832;23.918;2023-08-31T01:26:16;92760.81;;;15.69;100.00
40592;BME280;26301;42.832;23.918;2023-08-31T01:28:43;92748.88;;;15.63;100.00
40592;BME280;26301;42.832;23.918;2023-08-31T01:31:09;92752.75;;;15.66;100.00
40592;BME280;26301;42.832;23.918;2023-08-31T01:33:35;92738.09;;;15.46;100.00
40592;BME280;26301;42.832;23.918;2023-08-31T01:36:04;92736.03;;;15.43;100.00
40592;BME280;26301;42.832;23.918;2023-08-31T01:38:45;92743.50;;;15.54;100.00
40592;BME280;26301;42.832;23.918;2023-08-31T01:41:16;92756.72;;;15.58;100.00
40592;BME280;26301;42.832;23.918;2023-08-31T01:43:43;92733.38;;;15.53;100.00
40592;BME280;26301;42.832;23.918;2023-08-31T01:46:10;92746.31;;;15.58;100.00
40592;BME280;26301;42.832;23.918;2023-08-31T01:48:40;92738.94;;;15.41;100.00
40592;BME280;26301;42.832;23.918;2023-08-31T01:51:07;92745.09;;;15.50;100.00
40592;BME280;26301;42.832;23.918;2023-08-31T01:53:34;92756.56;;;15.49;100.00
40592;BME280;26301;42.832;23.918;2023-08-31T01:56:01;92738.66;;;15.43;100.00
40592;BME280;26301;42.832;23.918;2023-08-31T01:58:27;92759.94;;;15.50;100.00
40592;BME280;26301;42.832;23.918;2023-08-31T02:00:53;92760.13;;;15.59;100.00
40592;BME280;26301;42.832;23.918;2023-08-31T02:03:19;92761.94;;;15.58;100.00
40592;BME280;26301;42.832;23.918;2023-08-31T02:05:46;92751.09;;;15.46;100.00
40592;BME280;26301;42.832;23.918;2023-08-31T02:08:11;92773.38;;;15.62;100.00
40592;BME280;26301;42.832;23.918;2023-08-31T02:10:37;92747.66;;;15.55;100.00
40592;BME280;26301;42.832;23.918;2023-08-31T02:13:03;92772.50;;;15.72;100.00
40592;BME280;26301;42.832;23.918;2023-08-31T02:15:29;92776.66;;;15.73;100.00
40592;BME280;26301;42.832;23.918;2023-08-31T02:17:55;92782.91;;;15.77;100.00
40592;BME280;26301;42.832;23.918;2023-08-31T02:20:21;92758.50;;;15.68;99.74
40592;BME280;26301;42.832;23.918;2023-08-31T02:22:47;92778.09;;;15.89;98.40
40592;BME280;26301;42.832;23.918;2023-08-31T02:25:14;92771.38;;;15.83;95.95
40592;BME280;26301;42.832;23.918;2023-08-31T02:27:41;92773.47;;;15.81;95.02
40592;BME280;26301;42.832;23.918;2023-08-31T02:30:14;92768.59;;;15.74;94.53
40592;BME280;26301;42.832;23.918;2023-08-31T02:32:40;92759.31;;;15.58;96.36
40592;BME280;26301;42.832;23.918;2023-08-31T02:35:06;92770.47;;;15.64;95.38
40592;BME280;26301;42.832;23.918;2023-08-31T02:37:32;92765.44;;;15.43;96.11
40592;BME280;26301;42.832;23.918;2023-08-31T02:39:59;92773.50;;;15.47;96.14
40592;BME280;26301;42.832;23.918;2023-08-31T02:42:25;92753.81;;;15.36;95.82
40592;BME280;26301;42.832;23.918;2023-08-31T02:44:53;92767.09;;;15.34;94.91
40592;BME280;26301;42.832;23.918;2023-08-31T02:47:20;92784.53;;;15.33;95.07
40592;BME280;26301;42.832;23.918;2023-08-31T02:49:46;92777.78;;;15.32;95.12
40592;BME280;26301;42.832;23.918;2023-08-31T02:52:13;92765.91;;;15.16;93.28
40592;BME280;26301;42.832;23.918;2023-08-31T02:54:39;92775.84;;;15.14;93.90
40592;BME280;26301;42.832;23.918;2023-08-31T02:57:05;92789.88;;;15.13;92.91
40592;BME280;26301;42.832;23.918;2023-08-31T02:59:31;92777.25;;;14.96;92.93
40592;BME280;26301;42.832;23.918;2023-08-31T03:02:02;92779.13;;;14.85;92.73
40592;BME280;26301;42.832;23.918;2023-08-31T03:04:28;92782.50;;;14.86;93.21
40592;BME280;26301;42.832;23.918;2023-08-31T03:06:57;92796.22;;;14.97;93.42
40592;BME280;26301;42.832;23.918;2023-08-31T03:09:23;92793.66;;;14.92;92.68
40592;BME280;26301;42.832;23.918;2023-08-31T03:11:49;92805.31;;;14.99;92.57
40592;BME280;26301;42.832;23.918;2023-08-31T03:14:15;92802.81;;;14.84;92.69
40592;BME280;26301;42.832;23.918;2023-08-31T03:16:44;92799.69;;;14.82;92.71
40592;BME280;26301;42.832;23.918;2023-08-31T03:19:10;92808.25;;;14.88;92.37
40592;BME280;26301;42.832;23.918;2023-08-31T03:21:37;92813.22;;;14.84;92.57
40592;BME280;26301;42.832;23.918;2023-08-31T03:24:03;92807.75;;;14.85;92.03
40592;BME280;26301;42.832;23.918;2023-08-31T03:26:29;92811.94;;;14.81;91.92
40592;BME280;26301;42.832;23.918;2023-08-31T03:28:55;92797.94;;;14.72;92.20
40592;BME280;26301;42.832;23.918;2023-08-31T03:31:22;92814.28;;;14.78;91.97
40592;BME280;26301;42.832;23.918;2023-08-31T03:33:51;92805.22;;;14.75;91.89
40592;BME280;26301;42.832;23.918;2023-08-31T03:36:17;92801.38;;;14.62;92.59
40592;BME280;26301;42.832;23.918;2023-08-31T03:38:43;92815.63;;;14.65;92.50
40592;BME280;26301;42.832;23.918;2023-08-31T03:41:12;92791.53;;;14.49;92.24
40592;BME280;26301;42.832;23.918;2023-08-31T03:43:38;92810.50;;;14.55;91.90
40592;BME280;26301;42.832;23.918;2023-08-31T03:46:03;92817.00;;;14.57;92.13
40592;BME280;26301;42.832;23.918;2023-08-31T03:48:29;92819.34;;;14.54;92.45
40592;BME280;26301;42.832;23.918;2023-08-31T03:50:55;92822.97;;;14.58;92.35
40592;BME280;26301;42.832;23.918;2023-08-31T03:53:21;92812.84;;;14.51;91.55
40592;BME280;26301;42.832;23.918;2023-08-31T03:55:48;92821.13;;;14.58;91.69
40592;BME280;26301;42.832;23.918;2023-08-31T03:58:16;92818.03;;;14.46;91.83
40592;BME280;26301;42.832;23.918;2023-08-31T04:00:43;92828.97;;;14.53;91.62
40592;BME280;26301;42.832;23.918;2023-08-31T04:03:10;92828.16;;;14.58;90.46
40592;BME280;26301;42.832;23.918;2023-08-31T04:05:36;92821.66;;;14.55;90.41
40592;BME280;26301;42.832;23.918;2023-08-31T04:08:02;92817.00;;;14.52;90.32
40592;BME280;26301;42.832;23.918;2023-08-31T04:10:28;92821.94;;;14.54;90.14
40592;BME280;26301;42.832;23.918;2023-08-31T04:12:57;92839.25;;;14.74;89.62
40592;BME280;26301;42.832;23.918;2023-08-31T04:15:24;92840.84;;;14.70;89.56
40592;BME280;26301;42.832;23.918;2023-08-31T04:17:50;92832.00;;;14.71;88.87
40592;BME280;26301;42.832;23.918;2023-08-31T04:20:17;92824.78;;;14.62;88.67
40592;BME280;26301;42.832;23.918;2023-08-31T04:22:43;92844.75;;;14.62;88.98
40592;BME280;26301;42.832;23.918;2023-08-31T04:25:09;92866.00;;;14.79;89.14
40592;BME280;26301;42.832;23.918;2023-08-31T04:27:44;92860.84;;;14.74;89.59
40592;BME280;26301;42.832;23.918;2023-08-31T04:30:11;92859.78;;;14.80;89.59
40592;BME280;26301;42.832;23.918;2023-08-31T04:32:37;92854.84;;;14.79;90.36
40592;BME280;26301;42.832;23.918;2023-08-31T04:35:04;92877.09;;;15.00;91.04
40592;BME280;26301;42.832;23.918;2023-08-31T04:37:33;92868.53;;;14.95;88.97
40592;BME280;26301;42.832;23.918;2023-08-31T04:40:02;92861.00;;;14.93;89.08
40592;BME280;26301;42.832;23.918;2023-08-31T04:42:32;92881.44;;;15.10;89.91
40592;BME280;26301;42.832;23.918;2023-08-31T04:44:59;92890.78;;;15.16;90.28
40592;BME280;26301;42.832;23.918;2023-08-31T04:47:24;92896.75;;;15.22;90.01
40592;BME280;26301;42.832;23.918;2023-08-31T04:49:53;92891.81;;;15.20;89.38
40592;BME280;26301;42.832;23.918;2023-08-31T04:52:19;92890.72;;;15.31;90.34
40592;BME280;26301;42.832;23.918;2023-08-31T04:54:47;92894.56;;;15.39;91.11
40592;BME280;26301;42.832;23.918;2023-08-31T04:57:13;92901.50;;;15.49;87.75
40592;BME280;26301;42.832;23.918;2023-08-31T04:59:39;92901.50;;;15.54;89.78
40592;BME280;26301;42.832;23.918;2023-08-31T05:02:05;92901.69;;;15.63;92.05
40592;BME280;26301;42.832;23.918;2023-08-31T05:04:31;92905.03;;;15.73;92.09
40592;BME280;26301;42.832;23.918;2023-08-31T05:06:57;92903.97;;;15.80;92.36
40592;BME280;26301;42.832;23.918;2023-08-31T05:09:26;92909.03;;;15.95;92.49
40592;BME280;26301;42.832;23.918;2023-08-31T05:11:52;92901.41;;;16.04;92.21
40592;BME280;26301;42.832;23.918;2023-08-31T05:14:21;92902.59;;;16.16;92.17
40592;BME280;26301;42.832;23.918;2023-08-31T05:16:50;92878.84;;;16.18;92.49
40592;BME280;26301;42.832;23.918;2023-08-31T05:19:17;92881.59;;;16.32;92.23
40592;BME280;26301;42.832;23.918;2023-08-31T05:21:43;92872.91;;;16.41;92.29
40592;BME280;26301;42.832;23.918;2023-08-31T05:24:09;92897.09;;;16.71;92.55
40592;BME280;26301;42.832;23.918;2023-08-31T05:26:35;92889.72;;;16.78;92.12
40592;BME280;26301;42.832;23.918;2023-08-31T05:29:02;92903.38;;;16.94;92.61
40592;BME280;26301;42.832;23.918;2023-08-31T05:31:29;92900.06;;;17.07;92.52
40592;BME280;26301;42.832;23.918;2023-08-31T05:33:55;92882.88;;;17.06;91.10
40592;BME280;26301;42.832;23.918;2023-08-31T05:36:21;92900.94;;;17.41;90.50
40592;BME280;26301;42.832;23.918;2023-08-31T05:38:47;92903.25;;;17.61;89.38
40592;BME280;26301;42.832;23.918;2023-08-31T05:41:13;92897.47;;;17.83;88.60
40592;BME280;26301;42.832;23.918;2023-08-31T05:43:38;92898.69;;;18.04;84.54
40592;BME280;26301;42.832;23.918;2023-08-31T05:46:06;92901.25;;;18.23;80.95
40592;BME280;26301;42.832;23.918;2023-08-31T05:48:34;92894.09;;;18.29;80.15
40592;BME280;26301;42.832;23.918;2023-08-31T05:51:00;92904.78;;;18.46;78.11
40592;BME280;26301;42.832;23.918;2023-08-31T05:53:26;92890.84;;;18.51;78.94
40592;BME280;26301;42.832;23.918;2023-08-31T05:55:54;92893.16;;;18.52;80.19
40592;BME280;26301;42.832;23.918;2023-08-31T05:58:28;92875.13;;;18.65;80.86
40592;BME280;26301;42.832;23.918;2023-08-31T06:00:56;92897.56;;;18.99;79.04
40592;BME280;26301;42.832;23.918;2023-08-31T06:03:22;92870.72;;;18.93;78.96
40592;BME280;26301;42.832;23.918;2023-08-31T06:05:48;92884.03;;;19.19;80.72
40592;BME280;26301;42.832;23.918;2023-08-31T06:08:14;92889.00;;;19.43;78.29
40592;BME280;26301;42.832;23.918;2023-08-31T06:10:42;92894.00;;;19.67;75.40
40592;BME280;26301;42.832;23.918;2023-08-31T06:13:08;92877.00;;;19.78;74.60
40592;BME280;26301;42.832;23.918;2023-08-31T06:15:33;92885.31;;;20.03;69.94
40592;BME280;26301;42.832;23.918;2023-08-31T06:17:59;92893.59;;;20.19;69.25
40592;BME280;26301;42.832;23.918;2023-08-31T06:20:25;92905.91;;;20.41;67.61
40592;BME280;26301;42.832;23.918;2023-08-31T06:22:52;92909.41;;;20.59;66.69
40592;BME280;26301;42.832;23.918;2023-08-31T06:25:18;92909.91;;;20.69;66.87
40592;BME280;26301;42.832;23.918;2023-08-31T06:27:44;92901.78;;;20.80;65.22
40592;BME280;26301;42.832;23.918;2023-08-31T06:30:11;92907.25;;;21.00;66.18
40592;BME280;26301;42.832;23.918;2023-08-31T06:32:46;92891.97;;;21.11;62.70
40592;BME280;26301;42.832;23.918;2023-08-31T06:35:13;92891.72;;;21.30;63.12
40592;BME280;26301;42.832;23.918;2023-08-31T06:37:39;92904.88;;;21.56;59.69
40592;BME280;26301;42.832;23.918;2023-08-31T06:40:06;92913.41;;;21.79;60.89
40592;BME280;26301;42.832;23.918;2023-08-31T06:42:34;92922.34;;;22.04;59.30
40592;BME280;26301;42.832;23.918;2023-08-31T06:45:01;92928.34;;;22.13;56.63
40592;BME280;26301;42.832;23.918;2023-08-31T06:47:27;92925.13;;;22.34;55.43
40592;BME280;26301;42.832;23.918;2023-08-31T06:49:53;92918.13;;;22.38;53.96
40592;BME280;26301;42.832;23.918;2023-08-31T06:52:19;92907.47;;;22.34;55.26
40592;BME280;26301;42.832;23.918;2023-08-31T06:54:45;92920.88;;;22.50;52.75
40592;BME280;26301;42.832;23.918;2023-08-31T06:57:11;92908.53;;;22.51;53.02
40592;BME280;26301;42.832;23.918;2023-08-31T06:59:37;92928.47;;;22.60;54.60
40592;BME280;26301;42.832;23.918;2023-08-31T07:02:03;92931.94;;;22.82;52.44
40592;BME280;26301;42.832;23.918;2023-08-31T07:04:29;92929.56;;;22.89;51.02
40592;BME280;26301;42.832;23.918;2023-08-31T07:06:55;92934.06;;;22.97;50.45
40592;BME280;26301;42.832;23.918;2023-08-31T07:09:21;92941.44;;;23.13;49.56
40592;BME280;26301;42.832;23.918;2023-08-31T07:11:47;92935.94;;;23.26;49.30
40592;BME280;26301;42.832;23.918;2023-08-31T07:14:14;92918.88;;;23.33;48.08
40592;BME280;26301;42.832;23.918;2023-08-31T07:16:40;92922.09;;;23.59;48.91
40592;BME280;26301;42.832;23.918;2023-08-31T07:19:06;92936.22;;;23.84;46.87
40592;BME280;26301;42.832;23.918;2023-08-31T07:21:32;92934.84;;;23.99;47.22
40592;BME280;26301;42.832;23.918;2023-08-31T07:23:58;92929.88;;;24.18;46.48
40592;BME280;26301;42.832;23.918;2023-08-31T07:26:24;92929.25;;;24.34;44.90
40592;BME280;26301;42.832;23.918;2023-08-31T07:28:50;92936.94;;;24.48;45.80
40592;BME280;26301;42.832;23.918;2023-08-31T07:31:15;92933.91;;;24.70;40.68
40592;BME280;26301;42.832;23.918;2023-08-31T07:33:42;92937.88;;;24.89;41.54
40592;BME280;26301;42.832;23.918;2023-08-31T07:36:08;92926.97;;;24.90;41.74
40592;BME280;26301;42.832;23.918;2023-08-31T07:38:36;92940.44;;;25.09;39.99
40592;BME280;26301;42.832;23.918;2023-08-31T07:41:02;92922.53;;;25.15;41.81
40592;BME280;26301;42.832;23.918;2023-08-31T07:43:29;92939.25;;;25.19;38.39
40592;BME280;26301;42.832;23.918;2023-08-31T07:45:56;92938.69;;;25.14;38.44
40592;BME280;26301;42.832;23.918;2023-08-31T07:48:25;92934.16;;;25.02;38.27
40592;BME280;26301;42.832;23.918;2023-08-31T07:50:51;92932.75;;;25.17;38.54
40592;BME280;26301;42.832;23.918;2023-08-31T07:53:17;92936.47;;;25.40;37.58
40592;BME280;26301;42.832;23.918;2023-08-31T07:55:51;92921.72;;;25.51;37.12
40592;BME280;26301;42.832;23.918;2023-08-31T07:58:18;92940.84;;;25.73;39.00
40592;BME280;26301;42.832;23.918;2023-08-31T08:00:46;92934.00;;;25.84;36.31
40592;BME280;26301;42.832;23.918;2023-08-31T08:03:13;92944.56;;;25.84;36.81
40592;BME280;26301;42.832;23.918;2023-08-31T08:05:39;92921.75;;;25.80;35.79
40592;BME280;26301;42.832;23.918;2023-08-31T08:08:09;92943.59;;;26.17;37.35
40592;BME280;26301;42.832;23.918;2023-08-31T08:10:37;92948.78;;;26.41;40.07
40592;BME280;26301;42.832;23.918;2023-08-31T08:13:04;92936.75;;;26.44;40.03
40592;BME280;26301;42.832;23.918;2023-08-31T08:15:30;92947.16;;;26.65;39.93
40592;BME280;26301;42.832;23.918;2023-08-31T08:17:56;92936.22;;;26.66;39.14
40592;BME280;26301;42.832;23.918;2023-08-31T08:20:23;92949.72;;;26.77;39.21
40592;BME280;26301;42.832;23.918;2023-08-31T08:22:49;92944.34;;;26.89;38.35
40592;BME280;26301;42.832;23.918;2023-08-31T08:25:21;92929.66;;;26.92;39.14
40592;BME280;26301;42.832;23.918;2023-08-31T08:27:48;92936.50;;;26.93;39.38
40592;BME280;26301;42.832;23.918;2023-08-31T08:30:14;92944.84;;;26.95;37.18
40592;BME280;26301;42.832;23.918;2023-08-31T08:32:44;92947.63;;;26.99;37.37
40592;BME280;26301;42.832;23.918;2023-08-31T08:35:10;92928.03;;;26.87;38.05
40592;BME280;26301;42.832;23.918;2023-08-31T08:37:36;92949.31;;;26.91;35.25
40592;BME280;26301;42.832;23.918;2023-08-31T08:40:02;92931.34;;;26.68;34.86
40592;BME280;26301;42.832;23.918;2023-08-31T08:42:32;92951.38;;;26.82;35.58
40592;BME280;26301;42.832;23.918;2023-08-31T08:45:02;92929.88;;;26.71;36.96
40592;BME280;26301;42.832;23.918;2023-08-31T08:47:29;92955.53;;;26.67;34.05
40592;BME280;26301;42.832;23.918;2023-08-31T08:49:56;92925.22;;;26.36;34.35
40592;BME280;26301;42.832;23.918;2023-08-31T08:52:29;92935.06;;;25.95;35.74
40592;BME280;26301;42.832;23.918;2023-08-31T08:54:56;92953.78;;;25.25;36.97
40592;BME280;26301;42.832;23.918;2023-08-31T08:57:24;92936.97;;;24.72;37.31
40592;BME280;26301;42.832;23.918;2023-08-31T08:59:50;92953.94;;;24.83;38.26
40592;BME280;26301;42.832;23.918;2023-08-31T09:02:16;92933.41;;;24.44;38.61
40592;BME280;26301;42.832;23.918;2023-08-31T09:04:44;92940.72;;;24.71;40.59
40592;BME280;26301;42.832;23.918;2023-08-31T09:07:09;92939.53;;;25.05;41.41
40592;BME280;26301;42.832;23.918;2023-08-31T09:09:49;92954.53;;;25.50;40.73
40592;BME280;26301;42.832;23.918;2023-08-31T09:12:18;92939.31;;;25.47;40.24
40592;BME280;26301;42.832;23.918;2023-08-31T09:15:00;92950.41;;;25.90;38.73
40592;BME280;26301;42.832;23.918;2023-08-31T09:17:26;92938.16;;;25.97;39.34
40592;BME280;26301;42.832;23.918;2023-08-31T09:20:02;92949.03;;;26.36;38.24
40592;BME280;26301;42.832;23.918;2023-08-31T09:22:29;92914.00;;;26.27;37.86
40592;BME280;26301;42.832;23.918;2023-08-31T09:24:55;92928.72;;;26.40;37.70
40592;BME280;26301;42.832;23.918;2023-08-31T09:27:22;92930.31;;;26.57;37.00
40592;BME280;26301;42.832;23.918;2023-08-31T09:29:50;92948.13;;;26.88;37.01
40592;BME280;26301;42.832;23.918;2023-08-31T09:32:22;92945.56;;;27.08;37.19
40592;BME280;26301;42.832;23.918;2023-08-31T09:34:48;92922.47;;;27.08;36.17
40592;BME280;26301;42.832;23.918;2023-08-31T09:37:16;92930.75;;;27.07;36.25
40592;BME280;26301;42.832;23.918;2023-08-31T09:39:42;92937.34;;;27.13;36.55
40592;BME280;26301;42.832;23.918;2023-08-31T09:42:08;92936.22;;;26.98;33.95
40592;BME280;26301;42.832;23.918;2023-08-31T09:44:40;92951.31;;;27.26;33.76
40592;BME280;26301;42.832;23.918;2023-08-31T09:47:06;92956.50;;;27.06;33.25
40592;BME280;26301;42.832;23.918;2023-08-31T09:49:33;92949.78;;;26.65;32.82
40592;BME280;26301;42.832;23.918;2023-08-31T09:52:03;92936.84;;;26.48;32.70
40592;BME280;26301;42.832;23.918;2023-08-31T09:54:30;92931.56;;;26.48;33.30
40592;BME280;26301;42.832;23.918;2023-08-31T09:56:58;92942.00;;;26.56;32.07
40592;BME280;26301;42.832;23.918;2023-08-31T09:59:26;92949.44;;;26.38;32.42
40592;BME280;26301;42.832;23.918;2023-08-31T10:01:53;92943.34;;;26.22;31.60
40592;BME280;26301;42.832;23.918;2023-08-31T10:04:22;92941.28;;;26.43;31.61
40592;BME280;26301;42.832;23.918;2023-08-31T10:06:49;92951.16;;;26.59;30.87
40592;BME280;26301;42.832;23.918;2023-08-31T10:09:16;92932.56;;;26.43;30.36
40592;BME280;26301;42.832;23.918;2023-08-31T10:11:42;92941.50;;;26.51;31.24
40592;BME280;26301;42.832;23.918;2023-08-31T10:14:11;92921.50;;;26.25;31.04
40592;BME280;26301;42.832;23.918;2023-08-31T10:16:41;92935.53;;;26.41;31.68
40592;BME280;26301;42.832;23.918;2023-08-31T10:19:08;92934.16;;;26.60;30.99
40592;BME280;26301;42.832;23.918;2023-08-31T10:21:34;92944.00;;;26.75;31.21
40592;BME280;26301;42.832;23.918;2023-08-31T10:24:00;92937.59;;;26.92;31.26
40592;BME280;26301;42.832;23.918;2023-08-31T10:26:30;92935.53;;;26.85;31.08
40592;BME280;26301;42.832;23.918;2023-08-31T10:28:59;92924.69;;;26.75;29.76
40592;BME280;26301;42.832;23.918;2023-08-31T10:31:29;92944.69;;;26.88;30.56
40592;BME280;26301;42.832;23.918;2023-08-31T10:33:57;92956.59;;;26.50;31.05
40592;BME280;26301;42.832;23.918;2023-08-31T10:36:35;92951.69;;;26.36;31.94
40592;BME280;26301;42.832;23.918;2023-08-31T10:39:06;92956.44;;;26.31;31.73
40592;BME280;26301;42.832;23.918;2023-08-31T10:41:36;92957.84;;;26.12;32.12
40592;BME280;26301;42.832;23.918;2023-08-31T10:44:20;92949.09;;;26.24;32.63
40592;BME280;26301;42.832;23.918;2023-08-31T10:46:48;92949.69;;;26.17;32.47
40592;BME280;26301;42.832;23.918;2023-08-31T10:49:15;92942.69;;;26.25;35.22
40592;BME280;26301;42.832;23.918;2023-08-31T10:52:15;92959.81;;;26.43;33.45
40592;BME280;26301;42.832;23.918;2023-08-31T10:54:43;92946.38;;;26.36;32.84
40592;BME280;26301;42.832;23.918;2023-08-31T10:57:08;92944.75;;;26.32;32.70
40592;BME280;26301;42.832;23.918;2023-08-31T10:59:44;92968.31;;;26.49;32.19
40592;BME280;26301;42.832;23.918;2023-08-31T11:02:42;92944.38;;;26.17;31.72
40592;BME280;26301;42.832;23.918;2023-08-31T11:05:18;92947.88;;;26.21;33.15
40592;BME280;26301;42.832;23.918;2023-08-31T11:07:46;92957.72;;;26.49;32.70
40592;BME280;26301;42.832;23.918;2023-08-31T11:10:20;92957.50;;;26.42;31.11
40592;BME280;26301;42.832;23.918;2023-08-31T11:12:52;92945.19;;;26.34;32.32
40592;BME280;26301;42.832;23.918;2023-08-31T11:15:22;92952.44;;;26.37;31.76
40592;BME280;26301;42.832;23.918;2023-08-31T11:17:52;92960.91;;;26.71;32.43
40592;BME280;26301;42.832;23.918;2023-08-31T11:20:20;92940.47;;;26.55;32.00
40592;BME280;26301;42.832;23.918;2023-08-31T11:22:53;92942.63;;;26.65;31.23
40592;BME280;26301;42.832;23.918;2023-08-31T11:25:20;92942.38;;;26.86;31.21
40592;BME280;26301;42.832;23.918;2023-08-31T11:27:55;92950.69;;;27.17;31.63
40592;BME280;26301;42.832;23.918;2023-08-31T11:30:22;92947.16;;;27.12;29.46
40592;BME280;26301;42.832;23.918;2023-08-31T11:32:52;92948.63;;;26.94;29.74
40592;BME280;26301;42.832;23.918;2023-08-31T11:35:21;92955.53;;;26.83;30.48
40592;BME280;26301;42.832;23.918;2023-08-31T11:37:55;92944.78;;;26.76;30.53
40592;BME280;26301;42.832;23.918;2023-08-31T11:40:22;92945.38;;;26.85;29.87
40592;BME280;26301;42.832;23.918;2023-08-31T11:42:48;92951.88;;;27.03;29.93
40592;BME280;26301;42.832;23.918;2023-08-31T11:45:16;92951.38;;;26.98;30.60
40592;BME280;26301;42.832;23.918;2023-08-31T11:47:44;92924.34;;;27.08;29.46
40592;BME280;26301;42.832;23.918;2023-08-31T11:50:11;92940.44;;;27.15;30.32
40592;BME280;26301;42.832;23.918;2023-08-31T11:52:38;92926.91;;;27.04;30.64
40592;BME280;26301;42.832;23.918;2023-08-31T11:55:11;92929.66;;;26.92;30.18
40592;BME280;26301;42.832;23.918;2023-08-31T11:57:37;92942.66;;;26.97;30.70
40592;BME280;26301;42.832;23.918;2023-08-31T12:00:05;92938.03;;;26.94;31.83
40592;BME280;26301;42.832;23.918;2023-08-31T12:02:36;92954.09;;;27.01;31.08
40592;BME280;26301;42.832;23.918;2023-08-31T12:05:02;92946.91;;;26.86;30.90
40592;BME280;26301;42.832;23.918;2023-08-31T12:07:31;92922.53;;;26.64;29.69
40592;BME280;26301;42.832;23.918;2023-08-31T12:10:04;92942.91;;;26.92;31.61
40592;BME280;26301;42.832;23.918;2023-08-31T12:12:30;92924.94;;;26.85;30.96
40592;BME280;26301;42.832;23.918;2023-08-31T12:14:58;92946.13;;;27.01;31.62
40592;BME280;26301;42.832;23.918;2023-08-31T12:17:29;92941.53;;;26.98;30.01
40592;BME280;26301;42.832;23.918;2023-08-31T12:20:05;92918.88;;;27.01;29.62
40592;BME280;26301;42.832;23.918;2023-08-31T12:22:32;92929.38;;;27.13;29.57
40592;BME280;26301;42.832;23.918;2023-08-31T12:24:58;92933.44;;;27.23;29.63
40592;BME280;26301;42.832;23.918;2023-08-31T12:27:24;92917.03;;;27.17;30.36
40592;BME280;26301;42.832;23.918;2023-08-31T12:29:51;92937.75;;;27.47;29.58
40592;BME280;26301;42.832;23.918;2023-08-31T12:32:17;92936.38;;;27.53;29.85
40592;BME280;26301;42.832;23.918;2023-08-31T12:34:46;92931.22;;;27.60;29.63
40592;BME280;26301;42.832;23.918;2023-08-31T12:37:13;92930.22;;;27.49;28.70
40592;BME280;26301;42.832;23.918;2023-08-31T12:39:40;92933.38;;;27.54;29.13
40592;BME280;26301;42.832;23.918;2023-08-31T12:42:07;92934.78;;;27.32;30.01
40592;BME280;26301;42.832;23.918;2023-08-31T12:44:33;92938.09;;;27.45;30.34
40592;BME280;26301;42.832;23.918;2023-08-31T12:46:59;92922.19;;;27.45;30.56
40592;BME280;26301;42.832;23.918;2023-08-31T12:49:25;92941.06;;;27.59;31.20
40592;BME280;26301;42.832;23.918;2023-08-31T12:51:51;92940.31;;;27.59;31.03
40592;BME280;26301;42.832;23.918;2023-08-31T12:54:19;92937.47;;;27.52;30.55
40592;BME280;26301;42.832;23.918;2023-08-31T12:56:44;92921.59;;;27.36;30.76
40592;BME280;26301;42.832;23.918;2023-08-31T12:59:11;92914.50;;;27.40;32.26
40592;BME280;26301;42.832;23.918;2023-08-31T13:01:36;92924.66;;;27.54;33.21